Time;durP1;ratioP1;P1;durP2;ratioP2;P2;SDS_P1;SDS_P2;PMS_P1;PMS_P2;Temp;Humidity;BMP_temperature;BMP_pressure;BME280_temperature;BME280_humidity;BME280_pressure;Samples;Min_cycle;Max_cycle;Signal;HPM_P1;HPM_P2
2023/03/12 00:00:10;;;;;;;8.85;5.47;;;22.70;72.90;;;;;;6101024;28;80636;-63
2023/03/12 00:03:10;;;;;;;8.75;5.07;;;22.70;72.90;;;;;;6100165;28;80741;-63
2023/03/12 00:06:11;;;;;;;10.25;5.25;;;22.70;73.00;;;;;;6102488;28;81709;-65
2023/03/12 00:09:11;;;;;;;8.57;5.10;;;22.70;73.00;;;;;;6098264;28;82137;-63
2023/03/12 00:12:12;;;;;;;9.68;5.32;;;22.70;73.00;;;;;;6099596;28;83004;-64
2023/03/12 00:15:12;;;;;;;9.52;5.57;;;22.70;72.90;;;;;;6102961;28;80762;-62
2023/03/12 00:18:13;;;;;;;9.27;4.82;;;22.70;73.10;;;;;;6102133;28;80413;-62
2023/03/12 00:21:13;;;;;;;9.05;5.15;;;22.70;73.10;;;;;;6091964;28;81250;-61
2023/03/12 00:24:15;;;;;;;8.88;5.05;;;22.70;73.00;;;;;;6099101;28;81719;-61
2023/03/12 00:27:15;;;;;;;7.63;4.75;;;22.70;72.90;;;;;;6153070;28;80409;-64
2023/03/12 00:30:16;;;;;;;12.45;4.88;;;22.70;73.00;;;;;;6138080;28;81639;-62
2023/03/12 00:33:16;;;;;;;7.43;4.68;;;22.70;73.10;;;;;;6100530;28;82708;-64
2023/03/12 00:36:17;;;;;;;9.65;5.15;;;22.70;73.00;;;;;;6100796;28;80315;-63
2023/03/12 00:39:18;;;;;;;9.57;4.70;;;22.70;73.10;;;;;;6099289;28;80445;-62
2023/03/12 00:42:18;;;;;;;8.50;5.20;;;22.70;73.10;;;;;;6101899;28;80850;-62
2023/03/12 00:45:19;;;;;;;6.93;4.55;;;22.70;73.10;;;;;;6102137;28;82457;-62
2023/03/12 00:48:19;;;;;;;9.55;4.63;;;22.70;73.00;;;;;;6100043;28;83141;-70
2023/03/12 00:51:20;;;;;;;6.70;4.25;;;22.60;73.00;;;;;;6098378;28;80444;-68
2023/03/12 00:54:20;;;;;;;7.25;4.72;;;22.60;72.90;;;;;;6099371;28;80453;-68
2023/03/12 00:57:21;;;;;;;9.27;5.18;;;22.70;73.00;;;;;;6101731;28;81593;-68
2023/03/12 01:03:22;;;;;;;6.78;4.32;;;22.60;72.80;;;;;;6097526;28;82488;-69
2023/03/12 01:06:22;;;;;;;9.88;4.75;;;22.60;72.80;;;;;;6099265;28;80664;-71
2023/03/12 01:09:23;;;;;;;6.28;3.88;;;22.60;72.80;;;;;;6097246;28;82489;-63
2023/03/12 01:12:25;;;;;;;8.02;4.53;;;22.60;72.80;;;;;;6099011;28;82693;-63
2023/03/12 01:15:25;;;;;;;6.82;4.13;;;22.60;72.70;;;;;;6101195;28;82121;-62
2023/03/12 01:18:26;;;;;;;7.50;4.10;;;22.50;72.70;;;;;;6103949;28;80293;-62
2023/03/12 01:21:26;;;;;;;7.05;4.22;;;22.50;72.70;;;;;;6091318;28;85963;-62
2023/03/12 01:24:27;;;;;;;7.80;4.03;;;22.50;72.70;;;;;;6103044;28;80746;-62
2023/03/12 01:27:27;;;;;;;7.15;4.10;;;22.50;72.70;;;;;;6103331;28;80903;-61
2023/03/12 01:30:28;;;;;;;7.60;4.40;;;22.50;72.70;;;;;;6165936;28;82200;-64
2023/03/12 01:33:29;;;;;;;6.47;3.97;;;22.50;72.70;;;;;;6136825;28;83872;-64
2023/03/12 01:36:29;;;;;;;8.23;4.40;;;22.50;72.50;;;;;;6103054;28;80321;-64
2023/03/12 01:39:30;;;;;;;6.75;4.03;;;22.50;72.50;;;;;;6097325;28;81195;-64
2023/03/12 01:42:30;;;;;;;6.13;4.00;;;22.50;72.60;;;;;;6102616;28;83543;-63
2023/03/12 01:45:31;;;;;;;7.60;4.10;;;22.50;72.50;;;;;;6102332;28;80385;-65
2023/03/12 01:48:32;;;;;;;9.43;4.88;;;22.50;72.70;;;;;;6101993;28;80194;-63
2023/03/12 01:51:33;;;;;;;6.43;4.32;;;22.50;72.50;;;;;;6102214;28;80543;-64
2023/03/12 01:54:33;;;;;;;7.15;4.35;;;22.50;72.60;;;;;;6100539;28;82288;-65
2023/03/12 01:57:34;;;;;;;6.97;4.22;;;22.50;72.50;;;;;;6100981;28;83549;-65
2023/03/12 02:00:35;;;;;;;7.30;4.65;;;22.50;72.80;;;;;;6101311;28;81357;-66
2023/03/12 02:03:35;;;;;;;7.72;4.20;;;22.50;72.80;;;;;;6103098;28;80749;-66
2023/03/12 02:06:36;;;;;;;6.63;4.78;;;22.40;72.60;;;;;;6083987;28;82604;-67
2023/03/12 02:09:37;;;;;;;6.63;4.38;;;22.40;72.80;;;;;;6101599;28;80596;-64
2023/03/12 02:12:37;;;;;;;6.53;4.03;;;22.50;72.70;;;;;;6100275;28;80273;-63
2023/03/12 02:15:38;;;;;;;7.70;4.57;;;22.40;72.60;;;;;;6099907;28;83074;-64
2023/03/12 02:18:39;;;;;;;5.80;3.85;;;22.50;72.80;;;;;;6102918;28;80764;-67
2023/03/12 02:21:39;;;;;;;7.13;4.40;;;22.50;72.60;;;;;;6101297;28;80975;-72
2023/03/12 02:24:40;;;;;;;9.13;4.28;;;22.40;72.60;;;;;;6102809;28;80197;-71
2023/03/12 02:27:42;;;;;;;6.75;4.05;;;22.40;72.70;;;;;;6101980;28;80839;-71
2023/03/12 02:30:43;;;;;;;6.78;4.03;;;22.40;72.70;;;;;;6102499;28;81751;-71
2023/03/12 02:33:44;;;;;;;6.45;3.63;;;22.40;72.80;;;;;;6100169;28;83487;-71
2023/03/12 02:36:45;;;;;;;6.55;3.80;;;22.40;72.90;;;;;;6101509;28;81662;-69
2023/03/12 02:39:45;;;;;;;8.00;4.00;;;22.40;72.90;;;;;;6099684;28;82608;-68
2023/03/12 02:42:46;;;;;;;7.30;3.88;;;22.50;72.80;;;;;;6101336;28;80211;-69
2023/03/12 02:45:46;;;;;;;8.00;4.30;;;22.40;72.70;;;;;;6103025;28;80559;-69
2023/03/12 02:48:48;;;;;;;5.20;4.00;;;22.40;72.80;;;;;;6100422;28;81751;-69
2023/03/12 02:51:48;;;;;;;7.10;4.13;;;22.50;72.80;;;;;;6101640;28;80816;-69
2023/03/12 02:54:49;;;;;;;6.45;3.75;;;22.40;72.60;;;;;;6100366;28;83164;-68
2023/03/12 02:57:51;;;;;;;6.45;4.18;;;22.40;72.40;;;;;;6099416;28;82647;-64
2023/03/12 03:00:51;;;;;;;6.28;3.50;;;22.40;72.50;;;;;;6100609;28;83923;-64
2023/03/12 03:03:53;;;;;;;7.85;4.03;;;22.40;72.60;;;;;;6100063;28;82555;-64
2023/03/12 03:06:54;;;;;;;6.60;3.85;;;22.40;72.50;;;;;;6100763;28;82786;-65
2023/03/12 03:09:54;;;;;;;6.35;3.92;;;22.40;72.60;;;;;;6101024;28;81459;-65
2023/03/12 03:12:56;;;;;;;6.32;3.70;;;22.40;72.60;;;;;;6099620;28;82195;-64
2023/03/12 03:15:58;;;;;;;7.10;4.28;;;22.40;72.60;;;;;;6096644;28;82826;-65
2023/03/12 03:18:59;;;;;;;7.18;3.85;;;22.40;72.50;;;;;;6178455;28;82113;-64
2023/03/12 03:21:59;;;;;;;6.60;3.83;;;22.30;72.50;;;;;;6111998;28;80009;-64
2023/03/12 03:25:00;;;;;;;5.15;3.92;;;22.30;72.40;;;;;;6099391;28;83321;-62
2023/03/12 03:28:00;;;;;;;5.90;3.70;;;22.30;72.40;;;;;;6100080;28;82433;-65
2023/03/12 03:31:01;;;;;;;7.53;3.97;;;22.40;72.50;;;;;;6102058;28;80274;-65
2023/03/12 03:34:05;;;;;;;7.53;3.47;;;22.30;72.40;;;;;;6098669;28;83169;-62
2023/03/12 03:37:06;;;;;;;5.70;3.90;;;22.30;72.50;;;;;;6093321;28;80442;-62
2023/03/12 03:40:10;;;;;;;4.85;3.47;;;22.30;72.40;;;;;;6099271;28;82330;-61
2023/03/12 03:43:11;;;;;;;5.18;3.22;;;22.30;72.40;;;;;;6098439;28;83361;-61
2023/03/12 03:46:12;;;;;;;6.30;3.78;;;22.30;72.40;;;;;;6100753;28;81327;-63
2023/03/12 03:49:15;;;;;;;4.28;3.10;;;22.30;72.40;;;;;;6099719;28;83161;-65
2023/03/12 03:52:16;;;;;;;4.53;2.75;;;22.30;72.40;;;;;;6098488;28;82436;-63
2023/03/12 03:55:17;;;;;;;4.32;2.97;;;22.30;72.40;;;;;;6099013;28;83308;-63
2023/03/12 03:58:18;;;;;;;3.92;2.78;;;22.30;72.60;;;;;;6098764;28;83068;-66
2023/03/12 04:01:18;;;;;;;4.15;2.83;;;22.30;72.60;;;;;;6099817;28;83488;-66
2023/03/12 04:04:20;;;;;;;5.57;3.60;;;22.30;72.50;;;;;;6099112;28;82318;-66
2023/03/12 04:07:21;;;;;;;4.35;3.03;;;22.30;72.50;;;;;;6193996;28;80728;-66
2023/03/12 04:10:22;;;;;;;4.13;2.70;;;22.30;72.50;;;;;;6102342;28;83135;-65
2023/03/12 04:13:22;;;;;;;4.63;2.92;;;22.30;72.50;;;;;;6100211;28;83305;-62
2023/03/12 04:16:23;;;;;;;4.80;3.15;;;22.30;72.50;;;;;;6100401;28;81105;-62
2023/03/12 04:19:26;;;;;;;5.90;3.30;;;22.30;72.30;;;;;;6097464;28;80393;-63
2023/03/12 04:22:27;;;;;;;3.97;2.70;;;22.40;72.30;;;;;;6099154;28;83288;-63
2023/03/12 04:25:28;;;;;;;4.43;2.88;;;22.40;72.00;;;;;;6099046;28;81925;-63
2023/03/12 04:28:28;;;;;;;4.90;3.00;;;22.50;71.90;;;;;;6098701;28;81141;-64
2023/03/12 04:31:29;;;;;;;4.32;2.95;;;22.60;71.80;;;;;;6100809;28;80782;-64
2023/03/12 04:34:30;;;;;;;3.65;2.90;;;22.60;71.60;;;;;;6101192;28;81779;-63
2023/03/12 04:37:31;;;;;;;5.43;3.17;;;22.60;71.50;;;;;;6099629;28;82939;-62
2023/03/12 04:40:31;;;;;;;4.50;2.88;;;22.70;71.50;;;;;;6093507;28;83708;-61
2023/03/12 04:43:32;;;;;;;4.40;2.78;;;22.70;71.50;;;;;;6096740;28;82922;-61
2023/03/12 04:46:33;;;;;;;5.20;3.20;;;22.70;71.40;;;;;;6099771;28;80444;-61
2023/03/12 04:49:34;;;;;;;3.72;2.50;;;22.80;71.40;;;;;;6063636;28;87850;-61
2023/03/12 04:52:35;;;;;;;4.65;2.72;;;22.80;71.30;;;;;;6079695;28;83662;-63
2023/03/12 04:55:36;;;;;;;3.53;2.60;;;22.80;71.00;;;;;;6102857;28;83295;-62
2023/03/12 04:58:37;;;;;;;3.97;2.70;;;22.80;71.30;;;;;;6089653;28;83398;-62
2023/03/12 05:01:38;;;;;;;3.88;2.90;;;22.90;71.10;;;;;;6102989;28;80469;-62
2023/03/12 05:04:45;;;;;;;5.63;3.10;;;22.90;71.00;;;;;;6101614;28;82397;-63
2023/03/12 05:07:46;;;;;;;2.90;2.35;;;22.90;71.00;;;;;;6101123;28;82707;-63
2023/03/12 05:10:46;;;;;;;4.60;2.97;;;22.90;70.90;;;;;;6100394;28;82036;-63
2023/03/12 05:13:50;;;;;;;3.47;2.75;;;22.90;70.80;;;;;;6100693;28;82900;-63
2023/03/12 05:16:51;;;;;;;4.30;2.72;;;22.90;71.00;;;;;;6101275;28;82632;-62
2023/03/12 05:19:51;;;;;;;4.45;2.83;;;23.00;70.80;;;;;;6092992;28;83191;-63
2023/03/12 05:22:52;;;;;;;5.68;2.67;;;23.00;70.80;;;;;;6101883;28;81821;-63
2023/03/12 05:25:53;;;;;;;3.92;2.55;;;23.00;70.70;;;;;;6101455;28;81958;-63
2023/03/12 05:28:53;;;;;;;3.72;2.78;;;23.00;70.50;;;;;;6102970;28;82079;-63
2023/03/12 05:31:57;;;;;;;4.07;2.60;;;23.00;70.60;;;;;;6101189;28;83318;-64
2023/03/12 05:34:58;;;;;;;2.65;2.13;;;23.00;70.50;;;;;;6100825;28;83239;-64
2023/03/12 05:37:59;;;;;;;4.53;2.67;;;23.00;70.60;;;;;;6085067;28;83723;-63
2023/03/12 05:41:01;;;;;;;3.25;2.53;;;23.00;70.20;;;;;;6100083;28;82571;-63
2023/03/12 05:44:04;;;;;;;4.28;2.80;;;23.00;70.30;;;;;;6101662;28;83194;-65
2023/03/12 05:47:04;;;;;;;4.07;2.90;;;23.10;70.20;;;;;;6102490;28;83569;-64
2023/03/12 05:50:05;;;;;;;3.70;2.67;;;23.10;70.20;;;;;;6102802;28;83241;-64
2023/03/12 05:53:06;;;;;;;5.15;2.20;;;23.10;70.50;;;;;;6101569;28;81537;-64
2023/03/12 05:56:07;;;;;;;3.22;2.40;;;23.20;70.30;;;;;;6099947;28;82284;-64
2023/03/12 05:59:09;;;;;;;5.60;2.67;;;23.10;70.20;;;;;;6102580;28;80404;-64
2023/03/12 06:02:10;;;;;;;2.65;2.10;;;23.20;70.40;;;;;;6099112;28;83548;-65
2023/03/12 06:05:11;;;;;;;4.07;2.85;;;23.20;70.30;;;;;;6102229;27;84036;-65
2023/03/12 06:08:12;;;;;;;3.10;2.28;;;23.10;70.20;;;;;;6089313;28;81756;-65
2023/03/12 06:11:13;;;;;;;4.22;2.33;;;23.10;70.10;;;;;;6074081;28;82263;-65
2023/03/12 06:14:13;;;;;;;3.45;2.00;;;23.20;70.20;;;;;;6097903;28;83135;-64
2023/03/12 06:17:14;;;;;;;3.30;2.42;;;23.20;70.10;;;;;;6084877;28;81778;-64
2023/03/12 06:20:15;;;;;;;5.78;2.70;;;23.20;70.00;;;;;;6092631;28;80451;-63
2023/03/12 06:23:16;;;;;;;3.13;2.15;;;23.10;69.90;;;;;;6096029;28;80260;-63
2023/03/12 06:26:16;;;;;;;3.08;2.40;;;23.10;69.90;;;;;;6101095;28;83063;-64
2023/03/12 06:29:18;;;;;;;3.30;2.10;;;23.10;70.00;;;;;;6100362;28;82796;-65
2023/03/12 06:32:18;;;;;;;4.55;2.65;;;23.10;70.00;;;;;;6102559;28;80363;-62
2023/03/12 06:35:19;;;;;;;3.92;2.50;;;23.00;69.80;;;;;;6101322;28;80942;-63
2023/03/12 06:38:19;;;;;;;5.40;2.67;;;23.10;70.10;;;;;;6101966;28;81618;-65
2023/03/12 06:41:20;;;;;;;3.47;1.90;;;23.00;70.20;;;;;;6100862;28;80262;-66
2023/03/12 06:44:20;;;;;;;3.80;2.40;;;23.00;70.30;;;;;;6101864;28;80368;-66
2023/03/12 06:47:21;;;;;;;4.40;2.58;;;23.00;70.40;;;;;;6101768;28;80889;-69
2023/03/12 06:50:21;;;;;;;4.60;3.08;;;23.00;70.70;;;;;;6102144;28;80921;-64
2023/03/12 06:53:22;;;;;;;3.17;2.25;;;23.00;70.20;;;;;;6102412;28;80383;-64
2023/03/12 06:56:22;;;;;;;2.95;2.22;;;22.90;69.90;;;;;;6101048;28;80750;-69
2023/03/12 06:59:23;;;;;;;4.47;2.50;;;22.90;70.30;;;;;;6099857;28;80201;-65
2023/03/12 07:02:23;;;;;;;3.20;2.20;;;22.90;70.00;;;;;;6101755;28;80844;-64
2023/03/12 07:05:24;;;;;;;5.45;2.42;;;22.80;70.00;;;;;;6101403;28;80677;-65
2023/03/12 07:08:25;;;;;;;4.15;2.45;;;22.80;70.10;;;;;;6102430;28;80602;-65
2023/03/12 07:11:25;;;;;;;6.43;2.40;;;22.80;70.20;;;;;;6098811;28;80940;-64
2023/03/12 07:14:26;;;;;;;4.78;2.35;;;22.80;70.10;;;;;;6095339;28;82260;-65
2023/03/12 07:17:26;;;;;;;5.30;2.33;;;22.80;70.10;;;;;;6103109;28;81672;-63
2023/03/12 07:20:27;;;;;;;3.40;2.20;;;22.80;70.10;;;;;;6096958;28;83654;-63
2023/03/12 07:23:27;;;;;;;3.78;2.47;;;22.80;70.10;;;;;;6102338;28;80477;-62
2023/03/12 07:26:28;;;;;;;4.55;2.65;;;22.80;69.90;;;;;;6099220;28;80796;-62
2023/03/12 07:29:28;;;;;;;4.18;2.45;;;22.80;69.80;;;;;;6103197;28;80827;-61
2023/03/12 07:32:29;;;;;;;4.38;2.75;;;22.80;69.90;;;;;;6134836;28;83094;-67
2023/03/12 07:35:30;;;;;;;2.67;2.33;;;22.80;70.00;;;;;;6168882;28;80546;-67
2023/03/12 07:38:30;;;;;;;3.67;2.40;;;22.80;69.70;;;;;;6101301;28;81386;-63
2023/03/12 07:41:31;;;;;;;4.45;2.25;;;22.80;69.90;;;;;;6099798;28;80406;-65
2023/03/12 07:44:32;;;;;;;3.05;2.20;;;22.80;70.30;;;;;;6101279;28;80401;-60
2023/03/12 07:47:33;;;;;;;2.85;2.20;;;22.80;70.30;;;;;;6103405;28;80439;-60
2023/03/12 07:50:33;;;;;;;6.15;2.40;;;22.80;70.10;;;;;;6101828;28;80201;-59
2023/03/12 07:53:34;;;;;;;2.78;2.00;;;22.90;70.00;;;;;;6103344;28;81119;-63
2023/03/12 07:56:34;;;;;;;3.35;2.10;;;22.80;70.10;;;;;;6099405;28;81964;-63
2023/03/12 07:59:35;;;;;;;2.47;1.85;;;22.90;70.30;;;;;;6137311;28;80433;-64
2023/03/12 08:02:36;;;;;;;3.88;2.00;;;22.90;70.10;;;;;;6166734;28;80589;-64
2023/03/12 08:05:36;;;;;;;2.83;2.08;;;22.90;70.10;;;;;;6103079;28;83629;-64
2023/03/12 08:08:40;;;;;;;2.92;1.80;;;22.90;70.30;;;;;;6102472;28;80328;-64
2023/03/12 08:11:40;;;;;;;2.83;2.00;;;22.90;70.20;;;;;;6099933;28;81724;-65
2023/03/12 08:14:41;;;;;;;2.78;2.10;;;22.90;70.30;;;;;;6103093;28;80506;-65
2023/03/12 08:17:42;;;;;;;3.15;2.10;;;22.90;70.40;;;;;;6102302;28;81263;-66
2023/03/12 08:20:42;;;;;;;3.47;2.15;;;22.90;70.40;;;;;;6089870;28;80334;-66
2023/03/12 08:23:43;;;;;;;3.03;2.30;;;22.90;70.40;;;;;;6085270;28;80525;-63
2023/03/12 08:26:43;;;;;;;2.88;2.00;;;22.90;70.30;;;;;;6100701;28;81854;-67
2023/03/12 08:29:44;;;;;;;3.05;1.90;;;22.90;70.30;;;;;;6097605;28;80907;-66
2023/03/12 08:32:44;;;;;;;3.08;2.00;;;22.90;70.30;;;;;;6102648;28;80766;-66
2023/03/12 08:35:45;;;;;;;4.28;1.98;;;22.90;70.20;;;;;;6143149;28;82069;-65
2023/03/12 08:38:45;;;;;;;2.58;1.98;;;23.00;70.30;;;;;;6155360;28;81662;-63
2023/03/12 08:41:46;;;;;;;2.50;1.90;;;23.00;70.30;;;;;;6102719;28;80352;-64
2023/03/12 08:44:47;;;;;;;3.15;1.90;;;23.00;70.50;;;;;;6101419;28;80400;-64
2023/03/12 08:47:47;;;;;;;3.85;2.05;;;23.00;70.50;;;;;;6101764;28;81923;-60
2023/03/12 08:50:48;;;;;;;3.05;2.08;;;23.10;70.50;;;;;;6101073;28;80552;-60
2023/03/12 08:53:49;;;;;;;4.00;2.05;;;23.10;70.40;;;;;;6098366;28;80845;-60
2023/03/12 08:56:50;;;;;;;2.83;1.98;;;23.20;70.50;;;;;;6102189;28;80356;-62
2023/03/12 08:59:51;;;;;;;4.85;1.90;;;23.20;70.60;;;;;;6099124;28;80258;-61
2023/03/12 09:02:53;;;;;;;2.92;2.00;;;23.30;70.50;;;;;;6099653;28;80444;-61
2023/03/12 09:05:53;;;;;;;3.65;2.00;;;23.30;70.50;;;;;;6100540;28;80457;-60
2023/03/12 09:08:54;;;;;;;2.97;2.08;;;23.30;70.40;;;;;;6094101;28;83793;-61
2023/03/12 09:11:54;;;;;;;4.32;1.90;;;23.40;70.60;;;;;;6100482;28;80577;-60
2023/03/12 09:14:55;;;;;;;3.25;1.80;;;23.40;70.50;;;;;;6100422;28;81601;-61
2023/03/12 09:17:55;;;;;;;2.50;1.63;;;23.40;70.40;;;;;;6100877;28;80845;-60
2023/03/12 09:20:56;;;;;;;4.13;1.73;;;23.40;70.40;;;;;;6098586;28;80020;-60
2023/03/12 09:23:56;;;;;;;3.58;1.40;;;23.50;70.40;;;;;;6098708;28;81908;-59
2023/03/12 09:26:57;;;;;;;3.50;1.80;;;23.50;70.30;;;;;;6100652;28;80636;-61
2023/03/12 09:29:57;;;;;;;2.95;2.25;;;23.50;70.50;;;;;;6098775;28;81275;-60
2023/03/12 09:32:58;;;;;;;3.78;2.00;;;23.50;70.40;;;;;;6101434;28;80797;-60
2023/03/12 09:35:59;;;;;;;4.07;2.35;;;23.50;70.50;;;;;;6102740;28;80545;-60
2023/03/12 09:38:59;;;;;;;2.40;1.63;;;23.50;70.60;;;;;;6101626;28;80530;-61
2023/03/12 09:42:00;;;;;;;2.33;1.33;;;23.50;70.50;;;;;;6102306;28;80305;-70
2023/03/12 09:45:00;;;;;;;2.33;1.60;;;23.50;70.70;;;;;;6103655;28;82896;-72
2023/03/12 09:48:01;;;;;;;2.25;1.65;;;23.50;70.70;;;;;;6152549;28;80416;-71
2023/03/12 09:51:01;;;;;;;3.47;1.90;;;23.60;70.70;;;;;;6152578;28;80666;-69
2023/03/12 09:54:02;;;;;;;2.38;1.85;;;23.60;70.80;;;;;;6101636;28;80834;-68
2023/03/12 09:57:03;;;;;;;2.95;1.60;;;23.60;70.60;;;;;;6104581;28;80499;-69
2023/03/12 10:00:06;;;;;;;4.10;1.80;;;23.70;70.60;;;;;;6104138;28;81939;-65
2023/03/12 10:03:11;;;;;;;4.13;1.70;;;23.70;70.50;;;;;;6100524;28;81777;-64
2023/03/12 10:06:12;;;;;;;3.65;1.50;;;23.70;70.50;;;;;;6101634;28;81715;-64
2023/03/12 10:09:13;;;;;;;2.38;1.70;;;23.80;70.60;;;;;;6103881;28;80239;-65
2023/03/12 10:12:13;;;;;;;2.28;1.70;;;23.80;70.70;;;;;;6103170;28;82756;-65
2023/03/12 10:15:14;;;;;;;2.20;1.50;;;23.80;70.70;;;;;;6156330;28;80483;-64
2023/03/12 10:18:15;;;;;;;2.33;1.60;;;23.80;70.70;;;;;;6145596;28;81443;-69
2023/03/12 10:21:15;;;;;;;3.17;1.60;;;23.90;70.90;;;;;;6095512;28;80743;-68
2023/03/12 10:24:16;;;;;;;4.03;1.67;;;23.90;70.80;;;;;;6104561;28;80325;-68
2023/03/12 10:27:17;;;;;;;2.38;1.50;;;24.00;70.60;;;;;;6158491;28;80828;-67
2023/03/12 10:30:18;;;;;;;2.42;1.55;;;24.00;70.60;;;;;;6141551;28;81816;-67
2023/03/12 10:33:18;;;;;;;2.85;1.58;;;24.00;70.60;;;;;;6103880;28;81670;-69
2023/03/12 10:36:19;;;;;;;3.97;1.92;;;24.00;70.70;;;;;;6099695;28;82334;-62
2023/03/12 10:39:19;;;;;;;1.55;1.27;;;24.00;70.70;;;;;;6104103;28;80554;-60
2023/03/12 10:42:20;;;;;;;3.08;1.70;;;24.10;70.80;;;;;;6095475;28;80177;-61
2023/03/12 10:45:20;;;;;;;2.08;1.52;;;24.10;70.70;;;;;;6102529;28;80365;-60
2023/03/12 10:48:21;;;;;;;4.28;1.77;;;24.10;70.70;;;;;;6103553;28;81840;-59
2023/03/12 10:51:22;;;;;;;3.15;1.90;;;24.20;70.90;;;;;;6098534;28;81911;-59
2023/03/12 10:54:22;;;;;;;3.40;1.50;;;24.20;71.40;;;;;;6103117;28;80200;-68
2023/03/12 10:57:23;;;;;;;2.75;1.65;;;24.20;70.90;;;;;;6104049;28;81690;-59
2023/03/12 11:00:23;;;;;;;3.65;1.70;;;24.30;71.00;;;;;;6103706;28;80950;-60
2023/03/12 11:03:24;;;;;;;3.42;2.05;;;24.30;70.80;;;;;;6165293;28;80325;-60
2023/03/12 11:06:25;;;;;;;2.45;1.73;;;24.30;70.70;;;;;;6125203;28;81854;-59
2023/03/12 11:09:25;;;;;;;3.00;1.90;;;24.40;70.70;;;;;;6103107;28;80439;-62
2023/03/12 11:12:26;;;;;;;3.97;2.05;;;24.40;70.80;;;;;;6098833;28;82877;-59
2023/03/12 11:15:27;;;;;;;4.47;2.25;;;24.40;70.80;;;;;;6164249;28;80720;-66
2023/03/12 11:18:28;;;;;;;3.13;1.85;;;24.50;70.80;;;;;;6133526;28;80797;-67
2023/03/12 11:21:28;;;;;;;3.83;1.70;;;24.50;70.80;;;;;;6096012;28;80822;-66
2023/03/12 11:24:29;;;;;;;2.40;2.08;;;24.50;70.80;;;;;;6103575;28;81443;-71
2023/03/12 11:27:29;;;;;;;3.05;1.83;;;24.60;71.00;;;;;;6104072;28;80269;-68
2023/03/12 11:30:30;;;;;;;3.92;2.20;;;24.50;71.10;;;;;;6102531;28;80852;-71
2023/03/12 11:33:31;;;;;;;3.72;2.10;;;24.50;71.20;;;;;;6101154;28;80259;-70
2023/03/12 11:36:31;;;;;;;3.85;2.17;;;24.50;71.10;;;;;;6165255;28;81342;-68
2023/03/12 11:39:32;;;;;;;3.63;2.22;;;24.60;71.20;;;;;;6135718;28;81233;-66
2023/03/12 11:42:32;;;;;;;3.22;2.17;;;24.60;71.10;;;;;;6103744;28;80915;-66
2023/03/12 11:45:33;;;;;;;4.45;2.33;;;24.60;70.90;;;;;;6103789;28;80746;-67
2023/03/12 11:48:33;;;;;;;3.50;2.35;;;24.60;71.20;;;;;;6099416;28;81545;-68
2023/03/12 11:51:34;;;;;;;2.63;1.98;;;24.70;71.00;;;;;;6103565;28;81159;-68
2023/03/12 11:54:34;;;;;;;3.80;2.30;;;24.70;70.80;;;;;;6102665;28;80338;-67
2023/03/12 11:57:35;;;;;;;4.10;2.40;;;24.70;70.80;;;;;;6102624;28;80500;-66
2023/03/12 12:00:35;;;;;;;3.80;2.45;;;24.70;70.70;;;;;;6101773;28;81216;-67
2023/03/12 12:03:36;;;;;;;3.50;2.33;;;24.80;70.70;;;;;;6099713;28;81509;-65
2023/03/12 12:06:37;;;;;;;3.13;2.30;;;24.80;70.60;;;;;;6102007;28;80823;-66
2023/03/12 12:09:37;;;;;;;3.58;2.50;;;24.80;70.60;;;;;;6102214;28;80450;-68
2023/03/12 12:12:38;;;;;;;6.03;2.45;;;24.80;70.70;;;;;;6102420;28;80088;-65
2023/03/12 12:15:39;;;;;;;3.35;2.15;;;24.80;70.60;;;;;;6102358;28;80483;-65
2023/03/12 12:18:40;;;;;;;4.88;2.42;;;24.90;70.50;;;;;;6098612;28;80548;-69
2023/03/12 12:21:40;;;;;;;4.18;2.53;;;24.90;70.50;;;;;;6096495;28;80637;-68
2023/03/12 12:24:41;;;;;;;4.15;2.20;;;24.90;70.50;;;;;;6100524;28;81088;-69
2023/03/12 12:27:41;;;;;;;4.03;2.35;;;24.90;70.50;;;;;;6102871;28;80586;-67
2023/03/12 12:30:42;;;;;;;3.38;2.58;;;24.90;70.50;;;;;;6096978;28;80978;-66
2023/03/12 12:33:43;;;;;;;3.25;2.42;;;24.90;70.50;;;;;;6098659;28;82085;-68
2023/03/12 12:36:44;;;;;;;3.45;2.33;;;24.90;70.50;;;;;;6099557;28;83185;-71
2023/03/12 12:39:45;;;;;;;3.72;2.25;;;24.90;70.60;;;;;;6096644;28;80703;-71
2023/03/12 12:42:45;;;;;;;4.18;2.55;;;24.90;70.70;;;;;;6174701;28;80655;-71
2023/03/12 12:45:46;;;;;;;3.08;2.28;;;24.90;70.60;;;;;;6112264;28;80924;-71
2023/03/12 12:48:47;;;;;;;5.05;2.63;;;25.00;70.60;;;;;;6100504;28;80370;-63
2023/03/12 12:51:47;;;;;;;5.65;2.55;;;25.00;70.60;;;;;;6101869;28;80509;-63
2023/03/12 12:54:48;;;;;;;3.90;2.40;;;25.00;70.60;;;;;;6099497;28;82170;-68
2023/03/12 12:57:48;;;;;;;5.20;2.20;;;25.00;70.50;;;;;;6099467;28;81882;-65
2023/03/12 13:00:49;;;;;;;2.97;2.25;;;25.00;70.90;;;;;;6099274;28;81408;-65
2023/03/12 13:03:49;;;;;;;4.90;2.67;;;25.00;70.60;;;;;;6101009;28;81375;-60
2023/03/12 13:06:50;;;;;;;4.35;2.60;;;25.10;71.00;;;;;;6103982;28;80392;-61
2023/03/12 13:09:51;;;;;;;4.15;2.58;;;25.10;70.70;;;;;;6104654;28;80255;-63
2023/03/12 13:12:51;;;;;;;3.92;2.55;;;25.10;69.80;;;;;;6104597;28;80587;-61
2023/03/12 13:15:52;;;;;;;3.58;2.55;;;25.00;68.70;;;;;;6101492;28;81568;-61
2023/03/12 13:18:52;;;;;;;5.78;3.25;;;25.00;68.20;;;;;;6100591;28;80167;-61
2023/03/12 13:21:53;;;;;;;7.50;3.03;;;25.00;67.80;;;;;;6098260;28;80456;-64
2023/03/12 13:24:53;;;;;;;4.53;2.58;;;25.00;67.60;;;;;;6103819;28;80349;-64
2023/03/12 13:27:54;;;;;;;4.18;2.70;;;25.00;67.30;;;;;;6104816;28;83337;-63
2023/03/12 13:30:54;;;;;;;6.35;2.83;;;24.90;67.00;;;;;;6101767;28;80659;-63
2023/03/12 13:33:55;;;;;;;4.57;2.70;;;24.90;66.80;;;;;;6104489;28;80860;-67
2023/03/12 13:36:55;;;;;;;5.55;3.05;;;24.80;66.10;;;;;;6104239;28;80659;-65
2023/03/12 13:39:56;;;;;;;5.13;3.03;;;24.90;66.40;;;;;;6103454;28;81357;-69
2023/03/12 13:42:56;;;;;;;4.75;2.85;;;24.90;66.00;;;;;;6104832;28;83222;-64
2023/03/12 13:45:57;;;;;;;9.65;2.78;;;24.80;66.30;;;;;;6102639;28;80657;-69
2023/03/12 13:48:57;;;;;;;4.22;2.85;;;24.80;67.50;;;;;;6105252;28;80607;-65
2023/03/12 13:51:58;;;;;;;6.40;3.15;;;24.70;67.40;;;;;;6104904;28;80758;-67
2023/03/12 13:54:59;;;;;;;6.55;2.97;;;24.70;70.00;;;;;;6105446;28;80498;-67
2023/03/12 13:57:59;;;;;;;5.38;2.55;;;24.70;68.50;;;;;;6102043;28;81065;-71
2023/03/12 14:01:01;;;;;;;3.53;2.40;;;24.70;68.50;;;;;;6099539;28;80766;-67
2023/03/12 14:04:01;;;;;;;4.82;2.80;;;24.60;68.70;;;;;;6100632;28;80601;-74
2023/03/12 14:07:02;;;;;;;4.88;2.70;;;24.60;70.70;;;;;;6096251;28;80191;-74
2023/03/12 14:10:03;;;;;;;4.55;2.90;;;24.50;69.60;;;;;;6103933;28;80137;-70
2023/03/12 14:13:04;;;;;;;5.10;2.55;;;24.50;70.20;;;;;;6101886;28;82714;-69
2023/03/12 14:16:04;;;;;;;5.20;3.25;;;24.50;70.00;;;;;;6103546;28;81775;-70
2023/03/12 14:19:05;;;;;;;6.07;2.80;;;24.40;70.40;;;;;;6100452;28;80534;-74
2023/03/12 14:22:05;;;;;;;3.90;2.25;;;24.40;68.70;;;;;;6087862;28;82184;-73
2023/03/12 14:25:06;;;;;;;3.92;2.33;;;24.40;70.10;;;;;;6104880;28;80534;-75
2023/03/12 14:28:06;;;;;;;4.35;2.45;;;24.30;69.80;;;;;;6184590;28;83585;-70
2023/03/12 14:31:07;;;;;;;3.85;2.25;;;24.30;68.90;;;;;;6118960;28;79935;-72
2023/03/12 14:34:07;;;;;;;3.47;2.15;;;24.30;68.60;;;;;;6186086;28;80752;-68
2023/03/12 14:37:08;;;;;;;3.55;2.10;;;24.20;69.90;;;;;;6118413;28;80256;-63
2023/03/12 14:40:09;;;;;;;4.07;2.30;;;24.10;70.90;;;;;;6101894;28;80426;-63
2023/03/12 14:43:09;;;;;;;4.85;2.25;;;24.10;68.20;;;;;;6100725;28;80664;-62
2023/03/12 14:46:10;;;;;;;6.50;2.70;;;24.00;68.40;;;;;;6101844;28;81603;-63
2023/03/12 14:49:10;;;;;;;4.28;2.28;;;24.00;68.50;;;;;;6104042;28;80541;-62
2023/03/12 14:52:11;;;;;;;3.70;2.10;;;24.00;68.80;;;;;;6104090;28;80287;-63
2023/03/12 14:55:11;;;;;;;4.93;2.63;;;23.90;69.00;;;;;;6103480;28;80953;-72
2023/03/12 14:58:12;;;;;;;5.38;3.00;;;23.90;69.30;;;;;;6096437;28;84146;-70
2023/03/12 15:01:12;;;;;;;5.30;3.53;;;23.90;70.10;;;;;;6100080;28;83011;-69
2023/03/12 15:04:14;;;;;;;7.38;3.85;;;23.90;70.10;;;;;;6097815;28;80817;-68
2023/03/12 15:07:14;;;;;;;8.23;5.35;;;23.80;70.70;;;;;;6101020;28;81030;-70
2023/03/12 15:10:15;;;;;;;8.82;5.03;;;23.80;71.30;;;;;;6093404;28;83843;-70
2023/03/12 15:13:15;;;;;;;8.43;5.30;;;23.80;71.40;;;;;;6098418;28;83479;-65
2023/03/12 15:16:16;;;;;;;9.80;6.10;;;23.70;71.30;;;;;;6190906;28;82153;-64
2023/03/12 15:19:16;;;;;;;8.15;5.60;;;23.60;71.30;;;;;;6106858;28;81046;-70
2023/03/12 15:22:17;;;;;;;8.52;5.55;;;23.60;71.70;;;;;;6101843;28;80532;-62
2023/03/12 15:25:17;;;;;;;9.27;5.88;;;23.60;71.40;;;;;;6182947;28;81766;-63
2023/03/12 15:28:20;;;;;;;8.77;5.15;;;23.60;71.80;;;;;;6111917;28;81777;-63
2023/03/12 15:31:20;;;;;;;6.70;4.65;;;23.60;72.10;;;;;;6102211;28;82412;-60
2023/03/12 15:34:21;;;;;;;8.13;5.50;;;23.50;72.20;;;;;;6096153;28;82069;-59
2023/03/12 15:37:21;;;;;;;8.48;4.78;;;23.50;72.40;;;;;;6102718;28;80537;-61
2023/03/12 15:40:22;;;;;;;7.38;4.38;;;23.50;72.40;;;;;;6095986;28;80396;-60
2023/03/12 15:43:22;;;;;;;8.00;4.38;;;23.50;72.40;;;;;;6102092;28;80881;-60